Terminal Aerodrome Forecast
Issued by NWS

Current Version | Previous Version | Graphics & Text | Print | Product List | Glossary On
Versions: 1 2 3 4 5 6 7 8 9 10 11 12 13 14 15 16 17
000
FTUS41 KPBZ 141747
TAFMGW
TAF
KMGW 141747Z 1418/1518 18003KT P6SM VCSH BKN040
     FM142200 18004KT P6SM OVC050
     FM150900 00000KT P6SM BKN025
     FM151000 00000KT P6SM BKN015
     FM151100 00000KT P6SM BKN008
     FM151400 00000KT P6SM SCT025=

USA.gov is the U.S. government's official web portal to all federal, state and local government web resources and services.